createdAt,value
2022-10-08T00:01:06.970Z,98715.00
2022-10-08T00:03:37.144Z,98720.00
2022-10-08T00:06:08.027Z,98721.00
2022-10-08T00:08:37.527Z,98725.00
2022-10-08T00:11:07.596Z,98716.00
2022-10-08T00:13:41.753Z,98721.00
2022-10-08T00:16:10.126Z,98723.00
2022-10-08T00:18:39.087Z,98712.00
2022-10-08T00:21:09.829Z,98700.00
2022-10-08T00:23:38.046Z,98708.00
2022-10-08T00:26:07.204Z,98703.00
2022-10-08T00:28:35.571Z,98718.00
2022-10-08T00:31:07.575Z,98719.00
2022-10-08T00:33:36.276Z,98704.00
2022-10-08T00:36:04.482Z,98707.00
2022-10-08T00:38:34.100Z,98696.00
2022-10-08T00:41:02.267Z,98696.00
2022-10-08T00:43:38.285Z,98697.00
2022-10-08T00:46:06.813Z,98697.00
2022-10-08T00:48:34.999Z,98696.00
2022-10-08T00:51:03.681Z,98692.00
2022-10-08T00:53:33.233Z,98693.00
2022-10-08T00:56:01.430Z,98699.00
2022-10-08T00:58:29.654Z,98687.00
2022-10-08T01:00:57.951Z,98684.00
2022-10-08T01:03:26.212Z,98686.00
2022-10-08T01:05:56.437Z,98681.00
2022-10-08T01:08:27.044Z,98684.00
2022-10-08T01:10:59.331Z,98680.00
2022-10-08T01:13:33.872Z,98673.00
2022-10-08T01:16:03.649Z,98682.00
2022-10-08T01:18:34.445Z,98679.00
2022-10-08T01:21:04.962Z,98674.00
2022-10-08T01:24:14.989Z,98664.00
2022-10-08T01:27:05.768Z,98670.00
2022-10-08T01:29:37.438Z,98669.00
2022-10-08T01:32:08.493Z,98672.00
2022-10-08T01:34:38.227Z,98675.00
2022-10-08T01:37:07.632Z,98679.00
2022-10-08T01:39:36.465Z,98685.00
2022-10-08T01:42:04.950Z,98677.00
2022-10-08T01:44:35.445Z,98687.00
2022-10-08T01:47:07.049Z,98680.00
2022-10-08T01:49:38.710Z,98674.00
2022-10-08T01:52:08.943Z,98678.00
2022-10-08T01:54:37.398Z,98683.00
2022-10-08T01:57:05.846Z,98680.00
2022-10-08T01:59:36.916Z,98668.00
2022-10-08T02:02:07.581Z,98663.00
2022-10-08T02:04:37.127Z,98667.00
2022-10-08T02:07:07.539Z,98661.00
2022-10-08T02:09:36.935Z,98665.00
2022-10-08T02:12:05.783Z,98663.00
2022-10-08T02:14:35.838Z,98656.00
2022-10-08T02:17:09.008Z,98663.00
2022-10-08T02:19:43.613Z,98664.00
2022-10-08T02:22:11.796Z,98663.00
2022-10-08T02:24:41.491Z,98664.00
2022-10-08T02:27:09.748Z,98649.00
2022-10-08T02:29:41.954Z,98659.00
2022-10-08T02:32:11.694Z,98662.00
2022-10-08T02:34:41.001Z,98666.00
2022-10-08T02:37:10.522Z,98656.00
2022-10-08T02:39:55.992Z,98656.00
2022-10-08T02:42:24.576Z,98652.00
2022-10-08T02:44:54.964Z,98659.00
2022-10-08T02:47:24.395Z,98662.00
2022-10-08T02:49:54.069Z,98658.00
2022-10-08T02:52:22.276Z,98657.00
2022-10-08T02:54:50.747Z,98666.00
2022-10-08T02:57:20.973Z,98669.00
2022-10-08T02:59:49.275Z,98666.00
2022-10-08T03:02:20.538Z,98686.00
2022-10-08T03:04:49.902Z,98666.00
2022-10-08T03:07:18.069Z,98678.00
2022-10-08T03:09:46.757Z,98668.00
2022-10-08T03:12:14.961Z,98667.00
2022-10-08T03:14:43.701Z,98672.00
2022-10-08T03:17:12.918Z,98663.00
2022-10-08T03:19:42.493Z,98662.00
2022-10-08T03:22:10.658Z,98679.00
2022-10-08T03:24:38.834Z,98667.00
2022-10-08T03:27:06.999Z,98672.00
2022-10-08T03:29:35.164Z,98676.00
2022-10-08T03:32:03.371Z,98667.00
2022-10-08T03:34:31.503Z,98668.00
2022-10-08T03:37:01.062Z,98669.00
2022-10-08T03:39:29.265Z,98675.00
2022-10-08T03:41:57.433Z,98664.00
2022-10-08T03:44:25.656Z,98675.00
2022-10-08T03:46:53.831Z,98671.00
2022-10-08T03:49:22.005Z,98659.00
2022-10-08T03:51:50.190Z,98664.00
2022-10-08T03:54:19.804Z,98677.00
2022-10-08T03:56:48.002Z,98678.00
2022-10-08T03:59:16.482Z,98686.00
2022-10-08T04:01:44.737Z,98688.00
2022-10-08T04:04:12.939Z,98691.00
2022-10-08T04:06:41.105Z,98688.00
2022-10-08T04:09:10.661Z,98685.00
2022-10-08T04:11:40.214Z,98697.00
2022-10-08T04:14:08.464Z,98690.00
2022-10-08T04:16:36.697Z,98701.00
2022-10-08T04:19:04.842Z,98705.00
2022-10-08T04:21:33.012Z,98718.00
2022-10-08T04:24:01.197Z,98693.00
2022-10-08T04:26:29.387Z,98697.00
2022-10-08T04:28:58.937Z,98692.00
2022-10-08T04:31:27.177Z,98685.00
2022-10-08T04:33:55.355Z,98693.00
2022-10-08T04:36:24.695Z,98692.00
2022-10-08T04:38:52.905Z,98687.00
2022-10-08T04:41:21.918Z,98693.00
2022-10-08T04:43:50.230Z,98689.00
2022-10-08T04:46:20.635Z,98690.00
2022-10-08T04:48:49.573Z,98693.00
2022-10-08T04:51:17.843Z,98699.00
2022-10-08T04:53:46.057Z,98693.00
2022-10-08T04:56:15.343Z,98699.00
2022-10-08T04:58:43.517Z,98700.00
2022-10-08T05:01:13.094Z,98689.00
2022-10-08T05:03:43.723Z,98701.00
2022-10-08T05:06:11.977Z,98697.00
2022-10-08T05:08:40.206Z,98703.00
2022-10-08T05:11:08.626Z,98703.00
2022-10-08T05:13:36.819Z,98697.00
2022-10-08T05:16:05.896Z,98709.00
2022-10-08T05:18:34.433Z,98704.00
2022-10-08T05:21:08.479Z,98703.00
2022-10-08T05:23:36.724Z,98703.00
2022-10-08T05:26:12.753Z,98713.00
2022-10-08T05:28:40.966Z,98715.00
2022-10-08T05:31:09.257Z,98718.00
2022-10-08T05:33:37.513Z,98713.00
2022-10-08T05:36:08.018Z,98705.00
2022-10-08T05:38:36.274Z,98709.00
2022-10-08T05:41:11.599Z,98722.00
2022-10-08T05:43:39.821Z,98714.00
2022-10-08T05:46:08.038Z,98721.00
2022-10-08T05:48:36.292Z,98714.00
2022-10-08T05:51:07.907Z,98716.00
2022-10-08T05:53:37.234Z,98731.00
2022-10-08T05:56:06.622Z,98730.00
2022-10-08T05:58:35.350Z,98717.00
2022-10-08T06:01:04.696Z,98740.00
2022-10-08T06:03:32.924Z,98743.00
2022-10-08T06:06:03.444Z,98747.00
2022-10-08T06:08:32.975Z,98741.00
2022-10-08T06:11:01.635Z,98741.00
2022-10-08T06:13:29.797Z,98745.00
2022-10-08T06:15:58.132Z,98738.00
2022-10-08T06:18:26.588Z,98741.00
2022-10-08T06:20:54.838Z,98748.00
2022-10-08T06:23:24.000Z,98746.00
2022-10-08T06:25:53.544Z,98749.00
2022-10-08T06:28:21.762Z,98747.00
2022-10-08T06:30:50.000Z,98753.00
2022-10-08T06:33:18.621Z,98754.00
2022-10-08T06:35:46.954Z,98764.00
2022-10-08T06:38:15.147Z,98759.00
2022-10-08T06:40:43.425Z,98761.00
2022-10-08T06:43:13.826Z,98764.00
2022-10-08T06:45:42.193Z,98774.00
2022-10-08T06:48:11.764Z,98773.00
2022-10-08T06:50:40.144Z,98774.00
2022-10-08T06:53:09.484Z,98777.00
2022-10-08T06:55:37.696Z,98769.00
2022-10-08T06:58:06.051Z,98775.00
2022-10-08T07:00:35.707Z,98777.00
2022-10-08T07:03:03.959Z,98782.00
2022-10-08T07:05:32.201Z,98792.00
2022-10-08T07:08:00.387Z,98791.00
2022-10-08T07:10:32.444Z,98814.00
2022-10-08T07:13:01.590Z,98804.00
2022-10-08T07:15:31.311Z,98795.00
2022-10-08T07:18:04.652Z,98804.00
2022-10-08T07:20:32.867Z,98805.00
2022-10-08T07:23:01.055Z,98812.00
2022-10-08T07:25:29.346Z,98821.00
2022-10-08T07:27:57.531Z,98815.00
2022-10-08T07:30:28.655Z,98810.00
2022-10-08T07:32:56.783Z,98814.00
2022-10-08T07:35:26.510Z,98821.00
2022-10-08T07:37:54.738Z,98820.00
2022-10-08T07:40:24.005Z,98826.00
2022-10-08T07:42:52.379Z,98821.00
2022-10-08T07:45:20.592Z,98824.00
2022-10-08T07:47:48.746Z,98820.00
2022-10-08T07:50:17.817Z,98832.00
2022-10-08T07:52:47.599Z,98826.00
2022-10-08T07:55:16.204Z,98832.00
2022-10-08T07:57:44.388Z,98824.00
2022-10-08T08:00:13.454Z,98833.00
2022-10-08T08:02:41.704Z,98830.00
2022-10-08T08:05:10.181Z,98835.00
2022-10-08T08:07:38.354Z,98844.00
2022-10-08T08:10:09.289Z,98843.00
2022-10-08T08:12:37.500Z,98850.00
2022-10-08T08:15:06.328Z,98853.00
2022-10-08T08:17:35.896Z,98839.00
2022-10-08T08:20:04.152Z,98849.00
2022-10-08T08:22:32.302Z,98842.00
2022-10-08T08:25:00.491Z,98847.00
2022-10-08T08:27:30.374Z,98849.00
2022-10-08T08:29:58.567Z,98851.00
2022-10-08T08:32:28.682Z,98855.00
2022-10-08T08:34:56.957Z,98853.00
2022-10-08T08:37:25.169Z,98854.00
2022-10-08T08:39:53.415Z,98845.00
2022-10-08T08:42:26.778Z,98863.00
2022-10-08T08:44:58.452Z,98852.00
2022-10-08T08:47:29.078Z,98864.00
2022-10-08T08:49:58.535Z,98866.00
2022-10-08T08:52:27.665Z,98875.00
2022-10-08T08:54:56.380Z,98885.00
2022-10-08T08:57:36.112Z,98874.00
2022-10-08T09:00:07.294Z,98883.00
2022-10-08T09:02:36.997Z,98892.00
2022-10-08T09:05:07.344Z,98895.00
2022-10-08T09:07:40.388Z,98894.00
2022-10-08T09:10:09.686Z,98902.00
2022-10-08T09:12:38.472Z,98892.00
2022-10-08T09:15:16.513Z,98907.00
2022-10-08T09:17:44.738Z,98904.00
2022-10-08T09:20:15.497Z,98905.00
2022-10-08T09:22:45.751Z,98905.00
2022-10-08T09:25:15.657Z,98904.00
2022-10-08T09:27:47.358Z,98912.00
2022-10-08T09:30:37.273Z,98921.00
2022-10-08T09:33:16.844Z,98916.00
2022-10-08T09:35:45.991Z,98916.00
2022-10-08T09:38:23.248Z,98924.00
2022-10-08T09:41:01.979Z,98920.00
2022-10-08T09:43:33.892Z,98915.00
2022-10-08T09:46:05.999Z,98917.00
2022-10-08T09:48:34.157Z,98922.00
2022-10-08T09:51:03.975Z,98926.00
2022-10-08T09:53:39.999Z,98920.00
2022-10-08T09:56:08.987Z,98922.00
2022-10-08T09:58:40.476Z,98918.00
2022-10-08T10:01:14.793Z,98915.00
2022-10-08T10:03:48.606Z,98932.00
2022-10-08T10:06:21.047Z,98927.00
2022-10-08T10:08:56.010Z,98925.00
2022-10-08T10:11:28.165Z,98931.00
2022-10-08T10:13:56.762Z,98919.00
2022-10-08T10:16:27.471Z,98925.00
2022-10-08T10:18:58.736Z,98924.00
2022-10-08T10:21:31.348Z,98927.00
2022-10-08T10:24:18.685Z,98922.00
2022-10-08T10:26:50.006Z,98920.00
2022-10-08T10:29:19.922Z,98923.00
2022-10-08T10:31:50.540Z,98914.00
2022-10-08T10:34:20.273Z,98911.00
2022-10-08T10:36:50.800Z,98911.00
2022-10-08T10:39:25.318Z,98914.00
2022-10-08T10:41:57.058Z,98910.00
2022-10-08T10:44:26.616Z,98908.00
2022-10-08T10:46:57.040Z,98901.00
2022-10-08T10:49:28.599Z,98907.00
2022-10-08T10:52:04.737Z,98909.00
2022-10-08T10:54:45.246Z,98921.00
2022-10-08T10:57:17.278Z,98916.00
2022-10-08T10:59:47.435Z,98916.00
2022-10-08T11:02:24.395Z,98914.00
2022-10-08T11:05:01.534Z,98911.00
2022-10-08T11:07:58.075Z,98915.00
2022-10-08T11:10:35.848Z,98909.00
2022-10-08T11:13:08.832Z,98911.00
2022-10-08T11:15:38.359Z,98914.00
2022-10-08T11:18:28.362Z,98914.00
2022-10-08T11:21:02.498Z,98907.00
2022-10-08T11:23:39.621Z,98909.00
2022-10-08T11:26:22.454Z,98918.00
2022-10-08T11:28:56.090Z,98919.00
2022-10-08T11:31:28.231Z,98926.00
2022-10-08T11:33:57.823Z,98912.00
2022-10-08T11:36:32.875Z,98920.00
2022-10-08T11:39:05.840Z,98917.00
2022-10-08T11:41:37.449Z,98932.00
2022-10-08T11:44:05.711Z,98926.00
2022-10-08T11:46:36.548Z,98928.00
2022-10-08T11:49:45.404Z,98925.00
2022-10-08T11:52:14.864Z,98928.00
2022-10-08T11:54:43.045Z,98920.00
2022-10-08T11:57:17.469Z,98917.00
2022-10-08T11:59:45.720Z,98919.00
2022-10-08T12:02:23.657Z,98915.00
2022-10-08T12:04:54.146Z,98920.00
2022-10-08T12:07:26.174Z,98912.00
2022-10-08T12:10:29.791Z,98923.00
2022-10-08T12:13:25.744Z,98918.00
2022-10-08T12:16:06.995Z,98915.00
2022-10-08T12:18:53.647Z,98923.00
2022-10-08T12:21:50.590Z,98925.00
2022-10-08T12:24:55.484Z,98926.00
2022-10-08T12:27:34.174Z,98929.00
2022-10-08T12:30:03.511Z,98918.00
2022-10-08T12:32:32.779Z,98924.00
2022-10-08T12:35:01.724Z,98919.00
2022-10-08T12:37:44.966Z,98915.00
2022-10-08T12:40:21.015Z,98920.00
2022-10-08T12:42:49.758Z,98923.00
2022-10-08T12:45:21.701Z,98916.00
2022-10-08T12:47:53.836Z,98914.00
2022-10-08T12:50:45.070Z,98923.00
2022-10-08T12:53:15.743Z,98907.00
2022-10-08T12:55:46.580Z,98909.00
2022-10-08T12:58:17.466Z,98909.00
2022-10-08T13:00:46.195Z,98896.00
2022-10-08T13:03:16.566Z,98903.00
2022-10-08T13:05:44.989Z,98917.00
2022-10-08T13:08:28.788Z,98909.00
2022-10-08T13:10:57.259Z,98914.00
2022-10-08T13:13:45.542Z,98905.00
2022-10-08T13:16:14.691Z,98921.00
2022-10-08T13:18:43.906Z,98915.00
2022-10-08T13:21:35.358Z,98923.00
2022-10-08T13:24:05.725Z,98927.00
2022-10-08T13:26:43.972Z,98934.00
2022-10-08T13:29:28.569Z,98935.00
2022-10-08T13:31:58.828Z,98932.00
2022-10-08T13:34:28.756Z,98928.00
2022-10-08T13:36:58.751Z,98922.00
2022-10-08T13:39:30.264Z,98930.00
2022-10-08T13:42:00.152Z,98929.00
2022-10-08T13:44:28.411Z,98919.00
2022-10-08T13:47:00.073Z,98928.00
2022-10-08T13:49:31.098Z,98932.00
2022-10-08T13:51:59.396Z,98932.00
2022-10-08T13:54:32.668Z,98938.00
2022-10-08T13:57:01.013Z,98941.00
2022-10-08T13:59:30.843Z,98936.00
2022-10-08T14:01:59.450Z,98932.00
2022-10-08T14:04:27.983Z,98937.00
2022-10-08T14:06:56.543Z,98940.00
2022-10-08T14:09:25.889Z,98933.00
2022-10-08T14:11:56.965Z,98947.00
2022-10-08T14:14:25.257Z,98940.00
2022-10-08T14:16:53.658Z,98939.00
2022-10-08T14:19:21.909Z,98945.00
2022-10-08T14:21:50.534Z,98947.00
2022-10-08T14:24:19.104Z,98938.00
2022-10-08T14:26:47.305Z,98949.00
2022-10-08T14:29:16.949Z,98958.00
2022-10-08T14:31:45.180Z,98971.00
2022-10-08T14:34:13.452Z,98962.00
2022-10-08T14:36:41.890Z,98959.00
2022-10-08T14:39:11.020Z,98968.00
2022-10-08T14:41:40.808Z,98965.00
2022-10-08T14:44:08.991Z,98960.00
2022-10-08T14:46:38.964Z,98971.00
2022-10-08T14:49:07.549Z,98971.00
2022-10-08T14:51:38.771Z,98963.00
2022-10-08T14:54:07.455Z,98968.00
2022-10-08T14:56:41.841Z,98964.00
2022-10-08T14:59:10.044Z,98968.00
2022-10-08T15:01:42.291Z,98966.00
2022-10-08T15:04:12.740Z,98965.00
2022-10-08T15:06:41.173Z,98968.00
2022-10-08T15:09:11.756Z,98964.00
2022-10-08T15:11:40.020Z,98966.00
2022-10-08T15:14:09.428Z,98969.00
2022-10-08T15:16:39.631Z,98970.00
2022-10-08T15:19:08.266Z,98982.00
2022-10-08T15:21:37.035Z,98983.00
2022-10-08T15:24:05.337Z,98985.00
2022-10-08T15:26:33.598Z,98969.00
2022-10-08T15:29:02.974Z,98973.00
2022-10-08T15:31:31.963Z,98967.00
2022-10-08T15:34:01.885Z,98975.00
2022-10-08T15:36:33.145Z,98972.00
2022-10-08T15:39:01.870Z,98991.00
2022-10-08T15:41:31.149Z,98987.00
2022-10-08T15:44:03.904Z,98986.00
2022-10-08T15:46:32.106Z,98992.00
2022-10-08T15:49:02.835Z,98990.00
2022-10-08T15:51:31.268Z,99002.00
2022-10-08T15:53:59.500Z,99007.00
2022-10-08T15:56:27.716Z,99009.00
2022-10-08T15:58:56.118Z,99016.00
2022-10-08T16:01:24.570Z,99019.00
2022-10-08T16:03:53.571Z,99018.00
2022-10-08T16:06:24.895Z,99022.00
2022-10-08T16:08:53.143Z,99024.00
2022-10-08T16:11:22.604Z,99028.00
2022-10-08T16:13:52.100Z,99037.00
2022-10-08T16:16:20.430Z,99036.00
2022-10-08T16:18:51.088Z,99030.00
2022-10-08T16:21:20.783Z,99043.00
2022-10-08T16:23:50.426Z,99041.00
2022-10-08T16:26:21.438Z,99042.00
2022-10-08T16:28:50.541Z,99041.00
2022-10-08T16:31:19.025Z,99050.00
2022-10-08T16:33:47.214Z,99044.00
2022-10-08T16:36:15.642Z,99051.00
2022-10-08T16:38:43.807Z,99040.00
2022-10-08T16:41:14.903Z,99052.00
2022-10-08T16:43:46.097Z,99051.00
2022-10-08T16:46:15.485Z,99055.00
2022-10-08T16:48:43.713Z,99062.00
2022-10-08T16:51:12.385Z,99064.00
2022-10-08T16:53:40.752Z,99078.00
2022-10-08T16:56:09.008Z,99074.00
2022-10-08T16:58:38.639Z,99080.00
2022-10-08T17:01:08.520Z,99087.00
2022-10-08T17:03:36.978Z,99093.00
2022-10-08T17:06:05.867Z,99084.00
2022-10-08T17:08:34.022Z,99087.00
2022-10-08T17:11:05.380Z,99093.00
2022-10-08T17:13:33.880Z,99110.00
2022-10-08T17:16:04.211Z,99107.00
2022-10-08T17:18:33.210Z,99115.00
2022-10-08T17:21:01.659Z,99122.00
2022-10-08T17:23:33.979Z,99123.00
2022-10-08T17:26:04.487Z,99123.00
2022-10-08T17:28:33.551Z,99127.00
2022-10-08T17:31:03.608Z,99130.00
2022-10-08T17:33:35.700Z,99136.00
2022-10-08T17:36:05.353Z,99140.00
2022-10-08T17:38:33.725Z,99141.00
2022-10-08T17:41:01.999Z,99146.00
2022-10-08T17:43:30.258Z,99150.00
2022-10-08T17:46:08.821Z,99150.00
2022-10-08T17:48:40.148Z,99160.00
2022-10-08T17:51:08.744Z,99160.00
2022-10-08T17:53:36.972Z,99164.00
2022-10-08T17:56:06.198Z,99163.00
2022-10-08T17:58:34.443Z,99180.00
2022-10-08T18:01:09.058Z,99185.00
2022-10-08T18:03:37.582Z,99182.00
2022-10-08T18:06:06.039Z,99193.00
2022-10-08T18:08:34.540Z,99177.00
2022-10-08T18:11:03.508Z,99200.00
2022-10-08T18:13:31.752Z,99205.00
2022-10-08T18:16:03.909Z,99209.00
2022-10-08T18:18:33.656Z,99213.00
2022-10-08T18:21:02.199Z,99211.00
2022-10-08T18:23:30.417Z,99210.00
2022-10-08T18:26:28.267Z,99217.00
2022-10-08T18:29:06.013Z,99218.00
2022-10-08T18:31:53.012Z,99218.00
2022-10-08T18:34:31.100Z,99222.00
2022-10-08T18:37:17.101Z,99234.00
2022-10-08T18:40:05.266Z,99241.00
2022-10-08T18:42:49.780Z,99246.00
2022-10-08T18:45:37.040Z,99245.00
2022-10-08T18:48:15.505Z,99256.00
2022-10-08T18:50:53.800Z,99244.00
2022-10-08T18:53:47.267Z,99243.00
2022-10-08T18:56:24.971Z,99255.00
2022-10-08T18:59:01.579Z,99251.00
2022-10-08T19:01:46.083Z,99254.00
2022-10-08T19:04:31.584Z,99258.00
2022-10-08T19:07:17.420Z,99261.00
2022-10-08T19:09:54.452Z,99272.00
2022-10-08T19:12:32.417Z,99268.00
2022-10-08T19:15:07.904Z,99276.00
2022-10-08T19:17:49.232Z,99277.00
2022-10-08T19:20:26.982Z,99268.00
2022-10-08T19:23:12.868Z,99274.00
2022-10-08T19:25:57.784Z,99274.00
2022-10-08T19:28:37.685Z,99281.00
2022-10-08T19:31:23.646Z,99273.00
2022-10-08T19:34:09.831Z,99288.00
2022-10-08T19:36:55.825Z,99286.00
2022-10-08T19:39:44.220Z,99289.00
2022-10-08T19:42:37.417Z,99304.00
2022-10-08T19:45:20.267Z,99310.00
2022-10-08T19:48:00.387Z,99306.00
2022-10-08T19:50:49.656Z,99316.00
2022-10-08T19:53:43.021Z,99316.00
2022-10-08T19:56:32.779Z,99318.00
2022-10-08T19:59:13.675Z,99326.00
2022-10-08T20:01:51.124Z,99334.00
2022-10-08T20:04:25.159Z,99327.00
2022-10-08T20:07:05.722Z,99332.00
2022-10-08T20:09:43.131Z,99321.00
2022-10-08T20:12:35.503Z,99327.00
2022-10-08T20:15:19.102Z,99335.00
2022-10-08T20:18:06.154Z,99345.00
2022-10-08T20:20:58.322Z,99347.00
2022-10-08T20:24:00.384Z,99346.00
2022-10-08T20:26:46.328Z,99343.00
2022-10-08T20:29:30.658Z,99364.00
2022-10-08T20:32:14.298Z,99360.00
2022-10-08T20:34:46.517Z,99356.00
2022-10-08T20:37:28.459Z,99359.00
2022-10-08T20:40:05.975Z,99357.00
2022-10-08T20:42:44.385Z,99366.00
2022-10-08T20:45:23.576Z,99349.00
2022-10-08T20:48:05.752Z,99365.00
2022-10-08T20:50:43.573Z,99367.00
2022-10-08T20:53:34.020Z,99366.00
2022-10-08T20:56:25.954Z,99375.00
2022-10-08T20:59:10.772Z,99375.00
2022-10-08T21:01:48.476Z,99369.00
2022-10-08T21:04:23.100Z,99374.00
2022-10-08T21:07:02.092Z,99372.00
2022-10-08T21:09:31.636Z,99376.00
2022-10-08T21:12:18.346Z,99373.00
2022-10-08T21:14:52.764Z,99371.00
2022-10-08T21:17:32.427Z,99385.00
2022-10-08T21:20:14.310Z,99379.00
2022-10-08T21:23:07.187Z,99378.00
2022-10-08T21:25:45.803Z,99381.00
2022-10-08T21:28:15.630Z,99389.00
2022-10-08T21:33:54.233Z,99398.00
2022-10-08T21:36:28.910Z,99394.00
2022-10-08T21:39:02.917Z,99400.00
2022-10-08T21:41:44.457Z,99397.00
2022-10-08T21:44:28.974Z,99386.00
2022-10-08T21:47:07.388Z,99397.00
2022-10-08T21:49:44.825Z,99397.00
2022-10-08T21:52:19.450Z,99392.00
2022-10-08T21:55:03.586Z,99399.00
2022-10-08T21:57:38.687Z,99398.00
2022-10-08T22:00:13.141Z,99405.00
2022-10-08T22:02:49.349Z,99407.00
2022-10-08T22:05:29.168Z,99412.00
2022-10-08T22:08:07.227Z,99412.00
2022-10-08T22:10:53.427Z,99403.00
2022-10-08T22:13:27.852Z,99411.00
2022-10-08T22:16:16.018Z,99410.00
2022-10-08T22:18:58.667Z,99414.00
2022-10-08T22:21:42.259Z,99416.00
2022-10-08T22:24:20.304Z,99408.00
2022-10-08T22:27:03.080Z,99414.00
2022-10-08T22:29:36.785Z,99410.00
2022-10-08T22:32:16.415Z,99416.00
2022-10-08T22:34:54.737Z,99416.00
2022-10-08T22:37:31.930Z,99409.00
2022-10-08T22:40:11.457Z,99409.00
2022-10-08T22:43:02.522Z,99416.00
2022-10-08T22:45:45.620Z,99413.00
2022-10-08T22:48:34.664Z,99414.00
2022-10-08T22:51:10.612Z,99418.00
2022-10-08T22:53:50.775Z,99414.00
2022-10-08T22:56:27.749Z,99421.00
2022-10-08T22:59:09.432Z,99417.00
2022-10-08T23:01:43.906Z,99421.00
2022-10-08T23:04:23.088Z,99418.00
2022-10-08T23:07:02.936Z,99421.00
2022-10-08T23:09:38.637Z,99418.00
2022-10-08T23:12:12.686Z,99418.00
2022-10-08T23:14:52.595Z,99421.00
2022-10-08T23:17:40.843Z,99422.00
2022-10-08T23:20:21.372Z,99419.00
2022-10-08T23:23:08.700Z,99418.00
2022-10-08T23:25:43.965Z,99422.00
2022-10-08T23:28:21.484Z,99421.00
2022-10-08T23:30:56.233Z,99426.00
2022-10-08T23:33:31.438Z,99431.00
2022-10-08T23:36:11.317Z,99418.00
2022-10-08T23:38:51.373Z,99426.00
2022-10-08T23:41:32.516Z,99428.00
2022-10-08T23:44:13.969Z,99428.00
2022-10-08T23:47:00.739Z,99433.00
2022-10-08T23:49:52.670Z,99429.00
2022-10-08T23:52:31.572Z,99432.00
2022-10-08T23:55:14.150Z,99425.00
2022-10-08T23:57:50.979Z,99435.00
